sensor_id;sensor_type;location;lat;lon;timestamp;P1;durP1;ratioP1;P2;durP2;ratioP2
15065;SDS011;7632;64.944;20.038;2024-02-15T00:02:07;8.27;;;3.50;;
15065;SDS011;7632;64.944;20.038;2024-02-15T00:04:34;4.63;;;3.23;;
15065;SDS011;7632;64.944;20.038;2024-02-15T00:07:03;5.27;;;3.83;;
15065;SDS011;7632;64.944;20.038;2024-02-15T00:09:30;6.53;;;3.77;;
15065;SDS011;7632;64.944;20.038;2024-02-15T00:11:57;7.67;;;3.33;;
15065;SDS011;7632;64.944;20.038;2024-02-15T00:14:24;4.40;;;3.13;;
15065;SDS011;7632;64.944;20.038;2024-02-15T00:16:53;6.03;;;3.63;;
15065;SDS011;7632;64.944;20.038;2024-02-15T00:19:21;5.57;;;3.40;;
15065;SDS011;7632;64.944;20.038;2024-02-15T00:21:48;4.90;;;3.30;;
15065;SDS011;7632;64.944;20.038;2024-02-15T00:24:16;5.57;;;3.30;;
15065;SDS011;7632;64.944;20.038;2024-02-15T00:26:43;8.83;;;3.73;;
15065;SDS011;7632;64.944;20.038;2024-02-15T00:29:10;5.90;;;3.67;;
15065;SDS011;7632;64.944;20.038;2024-02-15T00:31:36;5.03;;;3.20;;
15065;SDS011;7632;64.944;20.038;2024-02-15T00:34:05;5.33;;;3.27;;
15065;SDS011;7632;64.944;20.038;2024-02-15T00:36:33;5.70;;;3.40;;
15065;SDS011;7632;64.944;20.038;2024-02-15T00:39:00;6.10;;;3.57;;
15065;SDS011;7632;64.944;20.038;2024-02-15T00:41:31;6.63;;;3.70;;
15065;SDS011;7632;64.944;20.038;2024-02-15T00:43:58;6.37;;;3.80;;
15065;SDS011;7632;64.944;20.038;2024-02-15T00:46:25;5.67;;;3.57;;
15065;SDS011;7632;64.944;20.038;2024-02-15T00:48:54;6.50;;;3.93;;
15065;SDS011;7632;64.944;20.038;2024-02-15T00:51:21;6.83;;;3.47;;
15065;SDS011;7632;64.944;20.038;2024-02-15T00:53:48;6.10;;;3.53;;
15065;SDS011;7632;64.944;20.038;2024-02-15T00:56:15;8.47;;;3.77;;
15065;SDS011;7632;64.944;20.038;2024-02-15T00:58:44;6.70;;;3.57;;
15065;SDS011;7632;64.944;20.038;2024-02-15T01:01:10;5.73;;;3.60;;
15065;SDS011;7632;64.944;20.038;2024-02-15T01:03:38;6.33;;;3.17;;
15065;SDS011;7632;64.944;20.038;2024-02-15T01:06:05;7.47;;;4.23;;
15065;SDS011;7632;64.944;20.038;2024-02-15T01:08:32;5.43;;;3.33;;
15065;SDS011;7632;64.944;20.038;2024-02-15T01:10:58;4.90;;;3.30;;
15065;SDS011;7632;64.944;20.038;2024-02-15T01:13:25;6.53;;;4.00;;
15065;SDS011;7632;64.944;20.038;2024-02-15T01:15:53;4.80;;;3.50;;
15065;SDS011;7632;64.944;20.038;2024-02-15T01:18:21;9.13;;;4.20;;
15065;SDS011;7632;64.944;20.038;2024-02-15T01:20:47;6.47;;;3.93;;
15065;SDS011;7632;64.944;20.038;2024-02-15T01:23:14;6.97;;;3.80;;
15065;SDS011;7632;64.944;20.038;2024-02-15T01:25:41;6.77;;;4.03;;
15065;SDS011;7632;64.944;20.038;2024-02-15T01:28:08;5.97;;;3.83;;
15065;SDS011;7632;64.944;20.038;2024-02-15T01:30:36;6.33;;;3.70;;
15065;SDS011;7632;64.944;20.038;2024-02-15T01:33:04;7.20;;;4.27;;
15065;SDS011;7632;64.944;20.038;2024-02-15T01:35:31;5.57;;;4.10;;
15065;SDS011;7632;64.944;20.038;2024-02-15T01:37:58;6.07;;;4.03;;
15065;SDS011;7632;64.944;20.038;2024-02-15T01:40:25;5.30;;;3.80;;
15065;SDS011;7632;64.944;20.038;2024-02-15T01:42:52;7.63;;;4.10;;
15065;SDS011;7632;64.944;20.038;2024-02-15T01:45:19;7.67;;;4.20;;
15065;SDS011;7632;64.944;20.038;2024-02-15T01:47:46;6.57;;;4.20;;
15065;SDS011;7632;64.944;20.038;2024-02-15T01:50:15;4.77;;;3.43;;
15065;SDS011;7632;64.944;20.038;2024-02-15T01:52:44;4.93;;;3.47;;
15065;SDS011;7632;64.944;20.038;2024-02-15T01:55:13;7.37;;;3.90;;
15065;SDS011;7632;64.944;20.038;2024-02-15T01:57:43;6.80;;;4.07;;
15065;SDS011;7632;64.944;20.038;2024-02-15T02:00:11;7.53;;;4.27;;
15065;SDS011;7632;64.944;20.038;2024-02-15T02:02:39;8.30;;;4.17;;
15065;SDS011;7632;64.944;20.038;2024-02-15T02:05:08;8.30;;;4.03;;
15065;SDS011;7632;64.944;20.038;2024-02-15T02:07:36;6.17;;;4.00;;
15065;SDS011;7632;64.944;20.038;2024-02-15T02:10:04;6.43;;;4.10;;
15065;SDS011;7632;64.944;20.038;2024-02-15T02:12:32;7.83;;;4.20;;
15065;SDS011;7632;64.944;20.038;2024-02-15T02:14:59;6.03;;;3.57;;
15065;SDS011;7632;64.944;20.038;2024-02-15T02:17:26;7.47;;;3.80;;
15065;SDS011;7632;64.944;20.038;2024-02-15T02:19:53;7.10;;;4.47;;
15065;SDS011;7632;64.944;20.038;2024-02-15T02:22:20;9.50;;;4.40;;
15065;SDS011;7632;64.944;20.038;2024-02-15T02:24:57;6.57;;;4.17;;
15065;SDS011;7632;64.944;20.038;2024-02-15T02:27:26;7.20;;;4.23;;
15065;SDS011;7632;64.944;20.038;2024-02-15T02:29:53;5.93;;;3.83;;
15065;SDS011;7632;64.944;20.038;2024-02-15T02:32:21;7.57;;;3.70;;
15065;SDS011;7632;64.944;20.038;2024-02-15T02:34:48;8.17;;;3.97;;
15065;SDS011;7632;64.944;20.038;2024-02-15T02:37:14;9.57;;;3.87;;
15065;SDS011;7632;64.944;20.038;2024-02-15T02:39:42;8.60;;;4.00;;
15065;SDS011;7632;64.944;20.038;2024-02-15T02:42:11;5.17;;;3.53;;
15065;SDS011;7632;64.944;20.038;2024-02-15T02:44:38;7.47;;;4.53;;
15065;SDS011;7632;64.944;20.038;2024-02-15T02:47:04;8.83;;;4.30;;
15065;SDS011;7632;64.944;20.038;2024-02-15T02:49:31;6.60;;;3.73;;
15065;SDS011;7632;64.944;20.038;2024-02-15T02:51:59;6.27;;;3.83;;
15065;SDS011;7632;64.944;20.038;2024-02-15T02:54:25;6.10;;;3.90;;
15065;SDS011;7632;64.944;20.038;2024-02-15T02:56:53;7.57;;;3.90;;
15065;SDS011;7632;64.944;20.038;2024-02-15T02:59:21;7.53;;;4.23;;
15065;SDS011;7632;64.944;20.038;2024-02-15T03:01:49;6.67;;;4.00;;
15065;SDS011;7632;64.944;20.038;2024-02-15T03:04:16;9.53;;;4.50;;
15065;SDS011;7632;64.944;20.038;2024-02-15T03:06:43;7.60;;;4.30;;
15065;SDS011;7632;64.944;20.038;2024-02-15T03:09:11;11.90;;;4.83;;
15065;SDS011;7632;64.944;20.038;2024-02-15T03:11:39;7.13;;;4.43;;
15065;SDS011;7632;64.944;20.038;2024-02-15T03:14:06;6.60;;;3.80;;
15065;SDS011;7632;64.944;20.038;2024-02-15T03:16:34;8.20;;;3.87;;
15065;SDS011;7632;64.944;20.038;2024-02-15T03:19:01;5.90;;;4.00;;
15065;SDS011;7632;64.944;20.038;2024-02-15T03:21:29;7.30;;;4.43;;
15065;SDS011;7632;64.944;20.038;2024-02-15T03:23:56;6.13;;;3.80;;
15065;SDS011;7632;64.944;20.038;2024-02-15T03:26:29;7.67;;;4.37;;
15065;SDS011;7632;64.944;20.038;2024-02-15T03:29:03;10.93;;;4.73;;
15065;SDS011;7632;64.944;20.038;2024-02-15T03:31:30;7.30;;;4.03;;
15065;SDS011;7632;64.944;20.038;2024-02-15T03:33:58;8.03;;;3.90;;
15065;SDS011;7632;64.944;20.038;2024-02-15T03:36:25;8.87;;;3.93;;
15065;SDS011;7632;64.944;20.038;2024-02-15T03:38:54;7.17;;;4.13;;
15065;SDS011;7632;64.944;20.038;2024-02-15T03:41:21;6.77;;;4.30;;
15065;SDS011;7632;64.944;20.038;2024-02-15T03:43:48;7.60;;;4.10;;
15065;SDS011;7632;64.944;20.038;2024-02-15T03:46:15;8.70;;;4.13;;
15065;SDS011;7632;64.944;20.038;2024-02-15T03:48:42;5.87;;;4.03;;
15065;SDS011;7632;64.944;20.038;2024-02-15T03:51:15;7.53;;;4.63;;
15065;SDS011;7632;64.944;20.038;2024-02-15T03:53:42;10.10;;;4.27;;
15065;SDS011;7632;64.944;20.038;2024-02-15T03:56:09;7.10;;;3.80;;
15065;SDS011;7632;64.944;20.038;2024-02-15T03:58:37;8.90;;;4.10;;
15065;SDS011;7632;64.944;20.038;2024-02-15T04:01:04;7.87;;;4.03;;
15065;SDS011;7632;64.944;20.038;2024-02-15T04:03:35;8.40;;;4.37;;
15065;SDS011;7632;64.944;20.038;2024-02-15T04:06:02;6.57;;;4.13;;
15065;SDS011;7632;64.944;20.038;2024-02-15T04:08:31;8.67;;;4.27;;
15065;SDS011;7632;64.944;20.038;2024-02-15T04:10:58;7.07;;;3.60;;
15065;SDS011;7632;64.944;20.038;2024-02-15T04:13:25;7.97;;;4.50;;
15065;SDS011;7632;64.944;20.038;2024-02-15T04:15:52;7.90;;;4.03;;
15065;SDS011;7632;64.944;20.038;2024-02-15T04:18:19;7.27;;;4.23;;
15065;SDS011;7632;64.944;20.038;2024-02-15T04:20:45;7.73;;;4.67;;
15065;SDS011;7632;64.944;20.038;2024-02-15T04:23:14;9.47;;;4.67;;
15065;SDS011;7632;64.944;20.038;2024-02-15T04:25:42;8.87;;;4.17;;
15065;SDS011;7632;64.944;20.038;2024-02-15T04:28:16;38.10;;;4.87;;
15065;SDS011;7632;64.944;20.038;2024-02-15T04:30:42;24.77;;;5.20;;
15065;SDS011;7632;64.944;20.038;2024-02-15T04:33:10;15.57;;;4.27;;
15065;SDS011;7632;64.944;20.038;2024-02-15T04:35:37;7.27;;;4.30;;
15065;SDS011;7632;64.944;20.038;2024-02-15T04:38:04;9.00;;;4.53;;
15065;SDS011;7632;64.944;20.038;2024-02-15T04:40:33;7.20;;;4.40;;
15065;SDS011;7632;64.944;20.038;2024-02-15T04:43:02;9.13;;;4.37;;
15065;SDS011;7632;64.944;20.038;2024-02-15T04:45:29;7.80;;;4.00;;
15065;SDS011;7632;64.944;20.038;2024-02-15T04:47:57;13.37;;;4.53;;
15065;SDS011;7632;64.944;20.038;2024-02-15T04:50:26;15.93;;;4.90;;
15065;SDS011;7632;64.944;20.038;2024-02-15T04:52:54;9.40;;;4.10;;
15065;SDS011;7632;64.944;20.038;2024-02-15T04:55:21;9.07;;;4.73;;
15065;SDS011;7632;64.944;20.038;2024-02-15T04:57:48;6.97;;;3.87;;
15065;SDS011;7632;64.944;20.038;2024-02-15T05:00:21;9.27;;;4.73;;
15065;SDS011;7632;64.944;20.038;2024-02-15T05:02:50;17.50;;;6.27;;
15065;SDS011;7632;64.944;20.038;2024-02-15T05:05:17;8.10;;;4.33;;
15065;SDS011;7632;64.944;20.038;2024-02-15T05:07:45;7.73;;;4.10;;
15065;SDS011;7632;64.944;20.038;2024-02-15T05:10:14;8.33;;;4.93;;
15065;SDS011;7632;64.944;20.038;2024-02-15T05:12:42;6.53;;;4.17;;
15065;SDS011;7632;64.944;20.038;2024-02-15T05:15:09;7.67;;;4.40;;
15065;SDS011;7632;64.944;20.038;2024-02-15T05:17:38;6.87;;;3.83;;
15065;SDS011;7632;64.944;20.038;2024-02-15T05:20:07;16.10;;;5.37;;
15065;SDS011;7632;64.944;20.038;2024-02-15T05:22:37;7.57;;;4.50;;
15065;SDS011;7632;64.944;20.038;2024-02-15T05:25:05;11.37;;;5.00;;
15065;SDS011;7632;64.944;20.038;2024-02-15T05:27:33;8.60;;;4.50;;
15065;SDS011;7632;64.944;20.038;2024-02-15T05:30:02;9.23;;;4.97;;
15065;SDS011;7632;64.944;20.038;2024-02-15T05:32:32;11.00;;;5.00;;
15065;SDS011;7632;64.944;20.038;2024-02-15T05:35:09;9.37;;;4.87;;
15065;SDS011;7632;64.944;20.038;2024-02-15T05:37:36;9.10;;;4.70;;
15065;SDS011;7632;64.944;20.038;2024-02-15T05:40:03;7.40;;;4.67;;
15065;SDS011;7632;64.944;20.038;2024-02-15T05:42:31;8.50;;;4.63;;
15065;SDS011;7632;64.944;20.038;2024-02-15T05:44:59;19.60;;;5.20;;
15065;SDS011;7632;64.944;20.038;2024-02-15T05:47:55;10.17;;;4.80;;
15065;SDS011;7632;64.944;20.038;2024-02-15T05:50:23;6.60;;;4.20;;
15065;SDS011;7632;64.944;20.038;2024-02-15T05:52:53;7.90;;;4.30;;
15065;SDS011;7632;64.944;20.038;2024-02-15T05:55:20;7.07;;;4.50;;
15065;SDS011;7632;64.944;20.038;2024-02-15T05:57:47;9.30;;;5.27;;
15065;SDS011;7632;64.944;20.038;2024-02-15T06:00:14;13.40;;;4.83;;
15065;SDS011;7632;64.944;20.038;2024-02-15T06:02:44;11.20;;;4.93;;
15065;SDS011;7632;64.944;20.038;2024-02-15T06:05:10;8.13;;;4.93;;
15065;SDS011;7632;64.944;20.038;2024-02-15T06:07:39;8.37;;;4.37;;
15065;SDS011;7632;64.944;20.038;2024-02-15T06:10:06;10.87;;;5.60;;
15065;SDS011;7632;64.944;20.038;2024-02-15T06:12:33;9.83;;;4.97;;
15065;SDS011;7632;64.944;20.038;2024-02-15T06:15:03;11.60;;;4.37;;
15065;SDS011;7632;64.944;20.038;2024-02-15T06:17:32;11.60;;;5.67;;
15065;SDS011;7632;64.944;20.038;2024-02-15T06:19:59;11.50;;;5.77;;
15065;SDS011;7632;64.944;20.038;2024-02-15T06:22:25;10.97;;;5.47;;
15065;SDS011;7632;64.944;20.038;2024-02-15T06:24:55;10.17;;;5.43;;
15065;SDS011;7632;64.944;20.038;2024-02-15T06:27:21;9.77;;;5.17;;
15065;SDS011;7632;64.944;20.038;2024-02-15T06:29:50;11.67;;;5.57;;
15065;SDS011;7632;64.944;20.038;2024-02-15T06:32:34;11.47;;;5.50;;
15065;SDS011;7632;64.944;20.038;2024-02-15T06:35:18;10.80;;;5.30;;
15065;SDS011;7632;64.944;20.038;2024-02-15T06:38:02;8.53;;;4.63;;
15065;SDS011;7632;64.944;20.038;2024-02-15T06:40:48;9.10;;;5.00;;
15065;SDS011;7632;64.944;20.038;2024-02-15T06:43:15;9.47;;;4.87;;
15065;SDS011;7632;64.944;20.038;2024-02-15T06:45:42;9.63;;;5.13;;
15065;SDS011;7632;64.944;20.038;2024-02-15T06:48:11;10.03;;;4.77;;
15065;SDS011;7632;64.944;20.038;2024-02-15T06:50:38;9.87;;;5.23;;
15065;SDS011;7632;64.944;20.038;2024-02-15T06:53:06;10.30;;;5.80;;
15065;SDS011;7632;64.944;20.038;2024-02-15T06:55:33;11.33;;;5.23;;
15065;SDS011;7632;64.944;20.038;2024-02-15T06:58:03;9.67;;;4.97;;
15065;SDS011;7632;64.944;20.038;2024-02-15T07:00:30;9.77;;;5.30;;
15065;SDS011;7632;64.944;20.038;2024-02-15T07:02:57;9.70;;;5.00;;
15065;SDS011;7632;64.944;20.038;2024-02-15T07:05:24;10.90;;;5.67;;
15065;SDS011;7632;64.944;20.038;2024-02-15T07:07:53;9.47;;;5.60;;
15065;SDS011;7632;64.944;20.038;2024-02-15T07:10:20;11.17;;;5.50;;
15065;SDS011;7632;64.944;20.038;2024-02-15T07:12:47;12.63;;;5.77;;
15065;SDS011;7632;64.944;20.038;2024-02-15T07:15:16;9.67;;;5.13;;
15065;SDS011;7632;64.944;20.038;2024-02-15T07:17:43;9.63;;;5.07;;
15065;SDS011;7632;64.944;20.038;2024-02-15T07:20:10;12.13;;;5.60;;
15065;SDS011;7632;64.944;20.038;2024-02-15T07:22:42;10.90;;;6.03;;
15065;SDS011;7632;64.944;20.038;2024-02-15T07:25:10;11.97;;;5.93;;
15065;SDS011;7632;64.944;20.038;2024-02-15T07:27:37;12.20;;;5.77;;
15065;SDS011;7632;64.944;20.038;2024-02-15T07:30:04;10.67;;;5.20;;
15065;SDS011;7632;64.944;20.038;2024-02-15T07:32:35;10.20;;;5.97;;
15065;SDS011;7632;64.944;20.038;2024-02-15T07:35:02;11.03;;;6.13;;
15065;SDS011;7632;64.944;20.038;2024-02-15T07:37:32;9.47;;;5.30;;
15065;SDS011;7632;64.944;20.038;2024-02-15T07:39:59;11.63;;;6.07;;
15065;SDS011;7632;64.944;20.038;2024-02-15T07:42:28;12.37;;;6.37;;
15065;SDS011;7632;64.944;20.038;2024-02-15T07:44:56;12.63;;;6.30;;
15065;SDS011;7632;64.944;20.038;2024-02-15T07:47:22;11.70;;;6.07;;
15065;SDS011;7632;64.944;20.038;2024-02-15T07:49:51;10.73;;;5.77;;
15065;SDS011;7632;64.944;20.038;2024-02-15T07:52:18;12.60;;;6.43;;
15065;SDS011;7632;64.944;20.038;2024-02-15T07:54:45;10.33;;;6.20;;
15065;SDS011;7632;64.944;20.038;2024-02-15T07:57:12;9.90;;;6.10;;
15065;SDS011;7632;64.944;20.038;2024-02-15T07:59:39;13.10;;;6.67;;
15065;SDS011;7632;64.944;20.038;2024-02-15T08:02:07;12.27;;;6.53;;
15065;SDS011;7632;64.944;20.038;2024-02-15T08:04:34;10.13;;;6.17;;
15065;SDS011;7632;64.944;20.038;2024-02-15T11:08:51;11.57;;;5.40;;
15065;SDS011;7632;64.944;20.038;2024-02-15T11:11:18;8.90;;;5.37;;
15065;SDS011;7632;64.944;20.038;2024-02-15T11:13:46;10.90;;;6.00;;
15065;SDS011;7632;64.944;20.038;2024-02-15T11:19:08;9.47;;;5.27;;
15065;SDS011;7632;64.944;20.038;2024-02-15T11:21:54;8.10;;;5.40;;
15065;SDS011;7632;64.944;20.038;2024-02-15T11:24:26;10.03;;;5.73;;
15065;SDS011;7632;64.944;20.038;2024-02-15T11:26:57;10.00;;;5.37;;
15065;SDS011;7632;64.944;20.038;2024-02-15T11:35:05;9.27;;;5.30;;
15065;SDS011;7632;64.944;20.038;2024-02-15T11:37:53;7.53;;;5.10;;
15065;SDS011;7632;64.944;20.038;2024-02-15T11:40:25;8.73;;;5.50;;
15065;SDS011;7632;64.944;20.038;2024-02-15T11:42:54;9.40;;;5.20;;
15065;SDS011;7632;64.944;20.038;2024-02-15T11:45:22;8.13;;;4.97;;
15065;SDS011;7632;64.944;20.038;2024-02-15T11:47:51;8.77;;;4.43;;
15065;SDS011;7632;64.944;20.038;2024-02-15T11:50:19;8.00;;;4.10;;
15065;SDS011;7632;64.944;20.038;2024-02-15T11:52:47;7.07;;;4.37;;
15065;SDS011;7632;64.944;20.038;2024-02-15T11:55:17;4.83;;;3.63;;
15065;SDS011;7632;64.944;20.038;2024-02-15T11:57:55;7.50;;;3.53;;
15065;SDS011;7632;64.944;20.038;2024-02-15T12:00:28;6.13;;;3.73;;
15065;SDS011;7632;64.944;20.038;2024-02-15T12:03:13;5.93;;;3.97;;
15065;SDS011;7632;64.944;20.038;2024-02-15T12:05:58;5.03;;;3.07;;
15065;SDS011;7632;64.944;20.038;2024-02-15T12:08:43;4.90;;;2.93;;
15065;SDS011;7632;64.944;20.038;2024-02-15T12:11:28;4.47;;;2.97;;
15065;SDS011;7632;64.944;20.038;2024-02-15T12:14:14;6.43;;;3.70;;
15065;SDS011;7632;64.944;20.038;2024-02-15T12:17:03;5.23;;;3.20;;
15065;SDS011;7632;64.944;20.038;2024-02-15T12:19:49;6.03;;;3.07;;
15065;SDS011;7632;64.944;20.038;2024-02-15T12:22:19;4.80;;;3.33;;
15065;SDS011;7632;64.944;20.038;2024-02-15T12:24:54;5.00;;;3.10;;
15065;SDS011;7632;64.944;20.038;2024-02-15T12:27:22;4.80;;;3.20;;
15065;SDS011;7632;64.944;20.038;2024-02-15T12:29:54;5.90;;;3.57;;
15065;SDS011;7632;64.944;20.038;2024-02-15T12:32:23;4.17;;;3.20;;
15065;SDS011;7632;64.944;20.038;2024-02-15T12:34:50;5.57;;;3.50;;
15065;SDS011;7632;64.944;20.038;2024-02-15T12:37:17;3.30;;;2.57;;
15065;SDS011;7632;64.944;20.038;2024-02-15T12:39:47;5.90;;;3.10;;
15065;SDS011;7632;64.944;20.038;2024-02-15T12:42:15;4.33;;;2.57;;
15065;SDS011;7632;64.944;20.038;2024-02-15T12:44:43;4.63;;;3.30;;
15065;SDS011;7632;64.944;20.038;2024-02-15T12:47:22;4.20;;;2.90;;
15065;SDS011;7632;64.944;20.038;2024-02-15T12:49:50;4.60;;;3.07;;
15065;SDS011;7632;64.944;20.038;2024-02-15T12:52:32;4.17;;;2.90;;
15065;SDS011;7632;64.944;20.038;2024-02-15T12:55:07;5.73;;;2.97;;
15065;SDS011;7632;64.944;20.038;2024-02-15T12:57:36;4.07;;;3.10;;
15065;SDS011;7632;64.944;20.038;2024-02-15T13:00:06;4.80;;;3.10;;
15065;SDS011;7632;64.944;20.038;2024-02-15T13:02:40;3.93;;;2.57;;
15065;SDS011;7632;64.944;20.038;2024-02-15T13:05:08;4.23;;;2.33;;
15065;SDS011;7632;64.944;20.038;2024-02-15T13:07:35;4.10;;;2.70;;
15065;SDS011;7632;64.944;20.038;2024-02-15T13:10:03;3.50;;;2.40;;
15065;SDS011;7632;64.944;20.038;2024-02-15T13:12:32;6.13;;;2.30;;
15065;SDS011;7632;64.944;20.038;2024-02-15T13:15:01;2.57;;;1.77;;
15065;SDS011;7632;64.944;20.038;2024-02-15T13:17:30;2.47;;;1.70;;
15065;SDS011;7632;64.944;20.038;2024-02-15T13:20:00;2.07;;;1.80;;
15065;SDS011;7632;64.944;20.038;2024-02-15T13:22:31;2.83;;;1.77;;
15065;SDS011;7632;64.944;20.038;2024-02-15T13:25:01;2.87;;;1.90;;
15065;SDS011;7632;64.944;20.038;2024-02-15T13:27:29;2.87;;;1.90;;
15065;SDS011;7632;64.944;20.038;2024-02-15T13:29:56;1.93;;;1.60;;
15065;SDS011;7632;64.944;20.038;2024-02-15T13:32:23;2.30;;;1.80;;
15065;SDS011;7632;64.944;20.038;2024-02-15T13:34:50;2.00;;;1.50;;
15065;SDS011;7632;64.944;20.038;2024-02-15T13:37:22;3.00;;;1.50;;
15065;SDS011;7632;64.944;20.038;2024-02-15T13:39:49;2.20;;;1.57;;
15065;SDS011;7632;64.944;20.038;2024-02-15T13:42:16;1.70;;;1.40;;
15065;SDS011;7632;64.944;20.038;2024-02-15T13:44:44;2.00;;;1.60;;
15065;SDS011;7632;64.944;20.038;2024-02-15T13:47:12;1.80;;;1.50;;
15065;SDS011;7632;64.944;20.038;2024-02-15T13:49:39;2.97;;;1.70;;
15065;SDS011;7632;64.944;20.038;2024-02-15T13:52:06;2.37;;;1.80;;
15065;SDS011;7632;64.944;20.038;2024-02-15T13:54:34;2.23;;;1.60;;
15065;SDS011;7632;64.944;20.038;2024-02-15T13:57:01;2.03;;;1.60;;
15065;SDS011;7632;64.944;20.038;2024-02-15T13:59:28;1.60;;;1.30;;
15065;SDS011;7632;64.944;20.038;2024-02-15T14:01:55;2.63;;;1.70;;
15065;SDS011;7632;64.944;20.038;2024-02-15T14:04:23;2.57;;;1.40;;
15065;SDS011;7632;64.944;20.038;2024-02-15T14:06:50;1.87;;;1.63;;
15065;SDS011;7632;64.944;20.038;2024-02-15T14:09:17;1.90;;;1.60;;
15065;SDS011;7632;64.944;20.038;2024-02-15T14:11:45;2.23;;;1.50;;
15065;SDS011;7632;64.944;20.038;2024-02-15T14:14:12;1.87;;;1.53;;
15065;SDS011;7632;64.944;20.038;2024-02-15T14:16:39;2.90;;;1.80;;
15065;SDS011;7632;64.944;20.038;2024-02-15T14:19:06;2.60;;;1.30;;
15065;SDS011;7632;64.944;20.038;2024-02-15T14:21:33;3.00;;;1.60;;
15065;SDS011;7632;64.944;20.038;2024-02-15T14:24:05;1.87;;;1.47;;
15065;SDS011;7632;64.944;20.038;2024-02-15T14:26:34;3.63;;;1.90;;
15065;SDS011;7632;64.944;20.038;2024-02-15T14:29:03;2.53;;;1.97;;
15065;SDS011;7632;64.944;20.038;2024-02-15T14:31:30;1.87;;;1.67;;
15065;SDS011;7632;64.944;20.038;2024-02-15T14:34:15;1.80;;;1.47;;
15065;SDS011;7632;64.944;20.038;2024-02-15T14:36:43;2.70;;;1.67;;
15065;SDS011;7632;64.944;20.038;2024-02-15T14:39:10;2.00;;;1.33;;
15065;SDS011;7632;64.944;20.038;2024-02-15T14:41:39;2.70;;;1.50;;
15065;SDS011;7632;64.944;20.038;2024-02-15T14:44:08;3.20;;;1.70;;
15065;SDS011;7632;64.944;20.038;2024-02-15T14:46:35;2.83;;;1.80;;
15065;SDS011;7632;64.944;20.038;2024-02-15T14:49:02;2.60;;;1.77;;
15065;SDS011;7632;64.944;20.038;2024-02-15T14:51:29;2.80;;;1.80;;
15065;SDS011;7632;64.944;20.038;2024-02-15T14:53:57;2.50;;;1.60;;
15065;SDS011;7632;64.944;20.038;2024-02-15T14:56:24;1.73;;;1.43;;
15065;SDS011;7632;64.944;20.038;2024-02-15T14:58:51;2.50;;;1.80;;
15065;SDS011;7632;64.944;20.038;2024-02-15T15:01:21;2.70;;;1.90;;
15065;SDS011;7632;64.944;20.038;2024-02-15T15:03:52;2.83;;;1.57;;
15065;SDS011;7632;64.944;20.038;2024-02-15T15:06:21;2.47;;;1.90;;
15065;SDS011;7632;64.944;20.038;2024-02-15T15:09:05;2.73;;;1.70;;
15065;SDS011;7632;64.944;20.038;2024-02-15T15:11:50;2.00;;;1.70;;
15065;SDS011;7632;64.944;20.038;2024-02-15T15:14:42;2.90;;;1.73;;
15065;SDS011;7632;64.944;20.038;2024-02-15T15:17:11;2.53;;;1.80;;
15065;SDS011;7632;64.944;20.038;2024-02-15T15:19:39;2.27;;;1.70;;
15065;SDS011;7632;64.944;20.038;2024-02-15T15:22:05;2.33;;;1.80;;
15065;SDS011;7632;64.944;20.038;2024-02-15T15:24:32;2.27;;;1.47;;
15065;SDS011;7632;64.944;20.038;2024-02-15T15:27:00;2.70;;;1.63;;
15065;SDS011;7632;64.944;20.038;2024-02-15T15:29:30;3.20;;;1.90;;
15065;SDS011;7632;64.944;20.038;2024-02-15T15:31:57;2.73;;;1.97;;
15065;SDS011;7632;64.944;20.038;2024-02-15T15:34:25;3.47;;;1.87;;
15065;SDS011;7632;64.944;20.038;2024-02-15T15:36:52;2.77;;;1.80;;
15065;SDS011;7632;64.944;20.038;2024-02-15T15:39:19;3.10;;;2.10;;
15065;SDS011;7632;64.944;20.038;2024-02-15T15:41:49;3.10;;;2.00;;
15065;SDS011;7632;64.944;20.038;2024-02-15T15:44:18;2.00;;;1.50;;
15065;SDS011;7632;64.944;20.038;2024-02-15T15:46:47;3.77;;;1.93;;
15065;SDS011;7632;64.944;20.038;2024-02-15T15:49:15;3.37;;;1.90;;
15065;SDS011;7632;64.944;20.038;2024-02-15T15:51:43;2.17;;;1.73;;
15065;SDS011;7632;64.944;20.038;2024-02-15T15:54:10;1.97;;;1.50;;
15065;SDS011;7632;64.944;20.038;2024-02-15T15:56:37;3.17;;;2.10;;
15065;SDS011;7632;64.944;20.038;2024-02-15T15:59:04;4.57;;;1.90;;
15065;SDS011;7632;64.944;20.038;2024-02-15T16:01:31;2.30;;;1.70;;
15065;SDS011;7632;64.944;20.038;2024-02-15T16:03:58;3.57;;;2.10;;
15065;SDS011;7632;64.944;20.038;2024-02-15T16:06:25;1.80;;;1.47;;
15065;SDS011;7632;64.944;20.038;2024-02-15T16:08:54;2.40;;;1.77;;
15065;SDS011;7632;64.944;20.038;2024-02-15T16:11:20;1.90;;;1.60;;
15065;SDS011;7632;64.944;20.038;2024-02-15T16:13:47;3.07;;;2.00;;
15065;SDS011;7632;64.944;20.038;2024-02-15T16:16:15;2.50;;;1.97;;
15065;SDS011;7632;64.944;20.038;2024-02-15T16:18:42;3.10;;;1.80;;
15065;SDS011;7632;64.944;20.038;2024-02-15T16:21:09;2.87;;;1.80;;
15065;SDS011;7632;64.944;20.038;2024-02-15T19:46:40;1.40;;;1.20;;
15065;SDS011;7632;64.944;20.038;2024-02-15T19:49:08;3.40;;;1.60;;
15065;SDS011;7632;64.944;20.038;2024-02-15T19:51:35;2.53;;;1.33;;
15065;SDS011;7632;64.944;20.038;2024-02-15T19:54:02;1.53;;;1.40;;
15065;SDS011;7632;64.944;20.038;2024-02-15T19:56:29;1.67;;;1.30;;
15065;SDS011;7632;64.944;20.038;2024-02-15T19:58:57;3.17;;;2.10;;
15065;SDS011;7632;64.944;20.038;2024-02-15T20:01:25;1.93;;;1.60;;
15065;SDS011;7632;64.944;20.038;2024-02-15T20:03:53;3.90;;;1.80;;
15065;SDS011;7632;64.944;20.038;2024-02-15T20:06:21;1.97;;;1.47;;
15065;SDS011;7632;64.944;20.038;2024-02-15T20:08:49;3.27;;;1.60;;
15065;SDS011;7632;64.944;20.038;2024-02-15T20:11:16;2.23;;;1.47;;
15065;SDS011;7632;64.944;20.038;2024-02-15T20:13:43;2.43;;;1.53;;
15065;SDS011;7632;64.944;20.038;2024-02-15T20:16:11;2.37;;;1.63;;
15065;SDS011;7632;64.944;20.038;2024-02-15T20:18:40;2.60;;;1.43;;
15065;SDS011;7632;64.944;20.038;2024-02-15T20:21:07;1.90;;;1.30;;
15065;SDS011;7632;64.944;20.038;2024-02-15T20:23:37;2.53;;;1.63;;
15065;SDS011;7632;64.944;20.038;2024-02-15T20:26:06;1.93;;;1.40;;
15065;SDS011;7632;64.944;20.038;2024-02-15T20:28:33;3.57;;;2.00;;
15065;SDS011;7632;64.944;20.038;2024-02-15T20:30:59;2.47;;;1.70;;
15065;SDS011;7632;64.944;20.038;2024-02-15T20:33:26;4.13;;;1.70;;
15065;SDS011;7632;64.944;20.038;2024-02-15T20:35:55;2.10;;;1.50;;
15065;SDS011;7632;64.944;20.038;2024-02-15T20:38:22;2.17;;;1.60;;
15065;SDS011;7632;64.944;20.038;2024-02-15T20:40:53;2.37;;;1.53;;
15065;SDS011;7632;64.944;20.038;2024-02-15T20:43:20;2.43;;;1.67;;
15065;SDS011;7632;64.944;20.038;2024-02-15T20:45:47;2.73;;;1.77;;
15065;SDS011;7632;64.944;20.038;2024-02-15T20:48:13;2.63;;;1.33;;
15065;SDS011;7632;64.944;20.038;2024-02-15T20:50:40;2.43;;;1.50;;
15065;SDS011;7632;64.944;20.038;2024-02-15T20:53:09;3.83;;;1.90;;
15065;SDS011;7632;64.944;20.038;2024-02-15T20:55:36;2.53;;;1.70;;
15065;SDS011;7632;64.944;20.038;2024-02-15T20:58:03;3.53;;;1.70;;
15065;SDS011;7632;64.944;20.038;2024-02-15T21:00:30;1.93;;;1.50;;
15065;SDS011;7632;64.944;20.038;2024-02-15T21:02:58;3.00;;;1.80;;
15065;SDS011;7632;64.944;20.038;2024-02-15T21:05:27;2.43;;;1.57;;
15065;SDS011;7632;64.944;20.038;2024-02-15T21:07:54;1.90;;;1.50;;
15065;SDS011;7632;64.944;20.038;2024-02-15T21:10:23;2.17;;;1.63;;
15065;SDS011;7632;64.944;20.038;2024-02-15T21:12:51;2.47;;;1.53;;
15065;SDS011;7632;64.944;20.038;2024-02-15T21:15:21;2.10;;;1.50;;
15065;SDS011;7632;64.944;20.038;2024-02-15T21:17:49;2.20;;;1.50;;
15065;SDS011;7632;64.944;20.038;2024-02-15T21:20:16;2.27;;;1.70;;
15065;SDS011;7632;64.944;20.038;2024-02-15T21:22:43;2.33;;;1.70;;
15065;SDS011;7632;64.944;20.038;2024-02-15T21:25:14;1.97;;;1.70;;
15065;SDS011;7632;64.944;20.038;2024-02-15T21:27:43;2.77;;;1.83;;
15065;SDS011;7632;64.944;20.038;2024-02-15T21:30:10;2.20;;;1.30;;